sensor_id;sensor_type;location;lat;lon;timestamp;P1;durP1;ratioP1;P2;durP2;ratioP2
18407;SDS011;9330;52.210;21.174;2023-02-15T00:01:29;39.35;;;28.60;;
18407;SDS011;9330;52.210;21.174;2023-02-15T00:03:56;42.70;;;30.35;;
18407;SDS011;9330;52.210;21.174;2023-02-15T00:06:23;38.65;;;30.15;;
18407;SDS011;9330;52.210;21.174;2023-02-15T00:08:51;37.00;;;28.35;;
18407;SDS011;9330;52.210;21.174;2023-02-15T00:11:19;38.13;;;28.23;;
18407;SDS011;9330;52.210;21.174;2023-02-15T00:14:06;37.05;;;28.80;;
18407;SDS011;9330;52.210;21.174;2023-02-15T00:16:34;37.90;;;28.48;;
18407;SDS011;9330;52.210;21.174;2023-02-15T00:19:02;38.10;;;27.65;;
18407;SDS011;9330;52.210;21.174;2023-02-15T00:21:29;38.60;;;28.50;;
18407;SDS011;9330;52.210;21.174;2023-02-15T00:23:57;38.55;;;28.67;;
18407;SDS011;9330;52.210;21.174;2023-02-15T00:26:25;39.15;;;28.45;;
18407;SDS011;9330;52.210;21.174;2023-02-15T00:28:53;36.65;;;27.17;;
18407;SDS011;9330;52.210;21.174;2023-02-15T00:31:22;37.90;;;27.35;;
18407;SDS011;9330;52.210;21.174;2023-02-15T00:33:49;35.03;;;26.60;;
18407;SDS011;9330;52.210;21.174;2023-02-15T00:36:16;32.78;;;24.77;;
18407;SDS011;9330;52.210;21.174;2023-02-15T00:38:42;37.47;;;28.13;;
18407;SDS011;9330;52.210;21.174;2023-02-15T00:41:09;38.03;;;25.98;;
18407;SDS011;9330;52.210;21.174;2023-02-15T00:43:36;32.58;;;24.85;;
18407;SDS011;9330;52.210;21.174;2023-02-15T00:46:04;36.50;;;26.88;;
18407;SDS011;9330;52.210;21.174;2023-02-15T00:48:32;34.10;;;25.35;;
18407;SDS011;9330;52.210;21.174;2023-02-15T00:51:00;31.65;;;23.65;;
18407;SDS011;9330;52.210;21.174;2023-02-15T00:53:27;34.03;;;22.75;;
18407;SDS011;9330;52.210;21.174;2023-02-15T00:55:55;33.28;;;23.38;;
18407;SDS011;9330;52.210;21.174;2023-02-15T00:58:22;34.13;;;22.02;;
18407;SDS011;9330;52.210;21.174;2023-02-15T01:00:50;34.40;;;24.98;;
18407;SDS011;9330;52.210;21.174;2023-02-15T01:03:18;33.42;;;23.92;;
18407;SDS011;9330;52.210;21.174;2023-02-15T01:05:48;37.22;;;25.48;;
18407;SDS011;9330;52.210;21.174;2023-02-15T01:08:17;34.08;;;24.00;;
18407;SDS011;9330;52.210;21.174;2023-02-15T01:10:43;34.70;;;23.48;;
18407;SDS011;9330;52.210;21.174;2023-02-15T01:13:12;36.20;;;25.17;;
18407;SDS011;9330;52.210;21.174;2023-02-15T01:15:40;33.70;;;22.92;;
18407;SDS011;9330;52.210;21.174;2023-02-15T01:18:07;30.33;;;22.27;;
18407;SDS011;9330;52.210;21.174;2023-02-15T01:20:36;34.58;;;21.77;;
18407;SDS011;9330;52.210;21.174;2023-02-15T01:23:07;26.70;;;19.27;;
18407;SDS011;9330;52.210;21.174;2023-02-15T01:25:34;26.45;;;19.30;;
18407;SDS011;9330;52.210;21.174;2023-02-15T01:28:02;27.98;;;18.25;;
18407;SDS011;9330;52.210;21.174;2023-02-15T01:30:29;27.88;;;19.00;;
18407;SDS011;9330;52.210;21.174;2023-02-15T01:32:56;29.20;;;21.05;;
18407;SDS011;9330;52.210;21.174;2023-02-15T01:35:25;27.70;;;20.05;;
18407;SDS011;9330;52.210;21.174;2023-02-15T01:37:52;28.92;;;20.45;;
18407;SDS011;9330;52.210;21.174;2023-02-15T01:40:22;35.13;;;22.60;;
18407;SDS011;9330;52.210;21.174;2023-02-15T01:42:49;30.27;;;21.67;;
18407;SDS011;9330;52.210;21.174;2023-02-15T01:45:22;29.83;;;20.58;;
18407;SDS011;9330;52.210;21.174;2023-02-15T01:47:53;36.05;;;23.63;;
18407;SDS011;9330;52.210;21.174;2023-02-15T01:50:25;33.70;;;22.85;;
18407;SDS011;9330;52.210;21.174;2023-02-15T01:52:57;32.58;;;23.63;;
18407;SDS011;9330;52.210;21.174;2023-02-15T01:55:30;35.28;;;23.98;;
18407;SDS011;9330;52.210;21.174;2023-02-15T01:58:00;34.90;;;24.95;;
18407;SDS011;9330;52.210;21.174;2023-02-15T02:00:27;41.22;;;25.95;;
18407;SDS011;9330;52.210;21.174;2023-02-15T02:02:54;35.63;;;23.80;;
18407;SDS011;9330;52.210;21.174;2023-02-15T02:05:22;32.58;;;24.05;;
18407;SDS011;9330;52.210;21.174;2023-02-15T02:07:50;35.80;;;25.75;;
18407;SDS011;9330;52.210;21.174;2023-02-15T02:10:21;36.15;;;24.77;;
18407;SDS011;9330;52.210;21.174;2023-02-15T02:12:51;38.22;;;25.48;;
18407;SDS011;9330;52.210;21.174;2023-02-15T02:15:21;39.20;;;26.02;;
18407;SDS011;9330;52.210;21.174;2023-02-15T02:17:57;36.53;;;24.35;;
18407;SDS011;9330;52.210;21.174;2023-02-15T02:29:58;35.65;;;24.13;;
18407;SDS011;9330;52.210;21.174;2023-02-15T02:35:59;35.85;;;24.80;;
18407;SDS011;9330;52.210;21.174;2023-02-15T02:38:33;33.70;;;23.95;;
18407;SDS011;9330;52.210;21.174;2023-02-15T02:41:11;38.88;;;26.30;;
18407;SDS011;9330;52.210;21.174;2023-02-15T02:43:45;36.65;;;25.60;;
18407;SDS011;9330;52.210;21.174;2023-02-15T02:46:17;35.83;;;24.27;;
18407;SDS011;9330;52.210;21.174;2023-02-15T02:48:48;34.65;;;25.00;;
18407;SDS011;9330;52.210;21.174;2023-02-15T02:51:17;39.03;;;26.60;;
18407;SDS011;9330;52.210;21.174;2023-02-15T02:53:47;37.35;;;26.65;;
18407;SDS011;9330;52.210;21.174;2023-02-15T02:56:19;33.25;;;25.02;;
18407;SDS011;9330;52.210;21.174;2023-02-15T02:58:49;33.35;;;24.83;;
18407;SDS011;9330;52.210;21.174;2023-02-15T03:01:23;39.63;;;26.38;;
18407;SDS011;9330;52.210;21.174;2023-02-15T03:03:54;34.67;;;25.58;;
18407;SDS011;9330;52.210;21.174;2023-02-15T03:06:28;37.92;;;26.52;;
18407;SDS011;9330;52.210;21.174;2023-02-15T03:09:06;38.35;;;27.05;;
18407;SDS011;9330;52.210;21.174;2023-02-15T03:11:39;39.00;;;26.55;;
18407;SDS011;9330;52.210;21.174;2023-02-15T03:14:07;37.95;;;25.17;;
18407;SDS011;9330;52.210;21.174;2023-02-15T03:16:35;37.35;;;27.02;;
18407;SDS011;9330;52.210;21.174;2023-02-15T03:19:05;34.42;;;25.48;;
18407;SDS011;9330;52.210;21.174;2023-02-15T03:21:38;39.13;;;26.42;;
18407;SDS011;9330;52.210;21.174;2023-02-15T03:24:15;34.90;;;25.40;;
18407;SDS011;9330;52.210;21.174;2023-02-15T03:26:45;37.92;;;27.17;;
18407;SDS011;9330;52.210;21.174;2023-02-15T03:29:15;40.78;;;26.20;;
18407;SDS011;9330;52.210;21.174;2023-02-15T03:31:45;34.55;;;24.80;;
18407;SDS011;9330;52.210;21.174;2023-02-15T03:34:30;29.80;;;21.60;;
18407;SDS011;9330;52.210;21.174;2023-02-15T03:36:59;27.58;;;21.17;;
18407;SDS011;9330;52.210;21.174;2023-02-15T03:39:33;30.58;;;22.05;;
18407;SDS011;9330;52.210;21.174;2023-02-15T03:42:04;31.02;;;22.25;;
18407;SDS011;9330;52.210;21.174;2023-02-15T03:44:46;32.85;;;22.00;;
18407;SDS011;9330;52.210;21.174;2023-02-15T03:47:17;29.73;;;20.02;;
18407;SDS011;9330;52.210;21.174;2023-02-15T03:49:48;30.88;;;21.85;;
18407;SDS011;9330;52.210;21.174;2023-02-15T03:52:21;29.77;;;21.63;;
18407;SDS011;9330;52.210;21.174;2023-02-15T03:54:50;30.90;;;22.67;;
18407;SDS011;9330;52.210;21.174;2023-02-15T03:57:18;36.60;;;22.67;;
18407;SDS011;9330;52.210;21.174;2023-02-15T04:00:08;30.33;;;21.30;;
18407;SDS011;9330;52.210;21.174;2023-02-15T04:03:06;29.05;;;21.70;;
18407;SDS011;9330;52.210;21.174;2023-02-15T04:05:43;30.33;;;21.70;;
18407;SDS011;9330;52.210;21.174;2023-02-15T04:08:12;31.92;;;22.20;;
18407;SDS011;9330;52.210;21.174;2023-02-15T04:10:39;33.80;;;23.30;;
18407;SDS011;9330;52.210;21.174;2023-02-15T04:13:17;31.90;;;23.67;;
18407;SDS011;9330;52.210;21.174;2023-02-15T04:15:44;32.80;;;23.15;;
18407;SDS011;9330;52.210;21.174;2023-02-15T04:18:28;31.23;;;21.98;;
18407;SDS011;9330;52.210;21.174;2023-02-15T04:21:13;30.30;;;22.17;;
18407;SDS011;9330;52.210;21.174;2023-02-15T04:23:58;31.60;;;21.92;;
18407;SDS011;9330;52.210;21.174;2023-02-15T04:26:43;29.30;;;22.13;;
18407;SDS011;9330;52.210;21.174;2023-02-15T04:29:09;31.67;;;23.00;;
18407;SDS011;9330;52.210;21.174;2023-02-15T04:31:36;31.58;;;22.33;;
18407;SDS011;9330;52.210;21.174;2023-02-15T04:34:03;29.65;;;21.08;;
18407;SDS011;9330;52.210;21.174;2023-02-15T04:36:30;29.42;;;21.90;;
18407;SDS011;9330;52.210;21.174;2023-02-15T04:38:58;30.77;;;22.27;;
18407;SDS011;9330;52.210;21.174;2023-02-15T04:41:25;30.30;;;21.67;;
18407;SDS011;9330;52.210;21.174;2023-02-15T04:43:52;32.13;;;21.77;;
18407;SDS011;9330;52.210;21.174;2023-02-15T04:46:19;31.75;;;23.15;;
18407;SDS011;9330;52.210;21.174;2023-02-15T04:48:46;34.60;;;23.00;;
18407;SDS011;9330;52.210;21.174;2023-02-15T04:51:12;32.88;;;22.23;;
18407;SDS011;9330;52.210;21.174;2023-02-15T04:53:39;30.60;;;22.80;;
18407;SDS011;9330;52.210;21.174;2023-02-15T04:56:08;31.88;;;22.83;;
18407;SDS011;9330;52.210;21.174;2023-02-15T04:58:34;29.38;;;21.42;;
18407;SDS011;9330;52.210;21.174;2023-02-15T05:01:02;28.70;;;21.80;;
18407;SDS011;9330;52.210;21.174;2023-02-15T05:03:29;30.70;;;22.67;;
18407;SDS011;9330;52.210;21.174;2023-02-15T05:05:56;32.15;;;22.92;;
18407;SDS011;9330;52.210;21.174;2023-02-15T05:08:22;31.35;;;22.80;;
18407;SDS011;9330;52.210;21.174;2023-02-15T05:10:49;30.95;;;21.98;;
18407;SDS011;9330;52.210;21.174;2023-02-15T05:13:17;33.17;;;23.27;;
18407;SDS011;9330;52.210;21.174;2023-02-15T05:15:46;30.55;;;23.27;;
18407;SDS011;9330;52.210;21.174;2023-02-15T05:18:14;32.45;;;23.35;;
18407;SDS011;9330;52.210;21.174;2023-02-15T05:20:41;32.75;;;23.63;;
18407;SDS011;9330;52.210;21.174;2023-02-15T05:23:08;34.10;;;24.25;;
18407;SDS011;9330;52.210;21.174;2023-02-15T05:25:35;34.17;;;23.83;;
18407;SDS011;9330;52.210;21.174;2023-02-15T05:28:21;34.20;;;22.60;;
18407;SDS011;9330;52.210;21.174;2023-02-15T05:30:49;32.60;;;23.35;;
18407;SDS011;9330;52.210;21.174;2023-02-15T05:33:17;27.67;;;21.35;;
18407;SDS011;9330;52.210;21.174;2023-02-15T05:35:43;30.52;;;21.42;;
18407;SDS011;9330;52.210;21.174;2023-02-15T05:38:10;31.23;;;22.30;;
18407;SDS011;9330;52.210;21.174;2023-02-15T05:40:37;31.50;;;23.92;;
18407;SDS011;9330;52.210;21.174;2023-02-15T05:43:04;37.13;;;25.10;;
18407;SDS011;9330;52.210;21.174;2023-02-15T05:45:32;35.67;;;24.38;;
18407;SDS011;9330;52.210;21.174;2023-02-15T05:47:59;35.88;;;24.63;;
18407;SDS011;9330;52.210;21.174;2023-02-15T05:50:26;31.92;;;21.55;;
18407;SDS011;9330;52.210;21.174;2023-02-15T05:52:53;28.90;;;21.27;;
18407;SDS011;9330;52.210;21.174;2023-02-15T05:55:22;32.25;;;21.50;;
18407;SDS011;9330;52.210;21.174;2023-02-15T05:57:49;32.10;;;23.25;;
18407;SDS011;9330;52.210;21.174;2023-02-15T06:00:17;32.63;;;23.17;;
18407;SDS011;9330;52.210;21.174;2023-02-15T06:02:46;31.50;;;22.50;;
18407;SDS011;9330;52.210;21.174;2023-02-15T06:05:13;30.77;;;22.35;;
18407;SDS011;9330;52.210;21.174;2023-02-15T06:07:42;34.47;;;24.35;;
18407;SDS011;9330;52.210;21.174;2023-02-15T06:10:09;33.22;;;24.23;;
18407;SDS011;9330;52.210;21.174;2023-02-15T06:12:36;33.60;;;23.88;;
18407;SDS011;9330;52.210;21.174;2023-02-15T06:15:03;34.28;;;23.35;;
18407;SDS011;9330;52.210;21.174;2023-02-15T06:17:31;30.63;;;22.23;;
18407;SDS011;9330;52.210;21.174;2023-02-15T06:19:59;33.17;;;23.77;;
18407;SDS011;9330;52.210;21.174;2023-02-15T06:22:26;32.33;;;23.73;;
18407;SDS011;9330;52.210;21.174;2023-02-15T06:24:54;30.80;;;23.40;;
18407;SDS011;9330;52.210;21.174;2023-02-15T06:27:20;32.22;;;23.55;;
18407;SDS011;9330;52.210;21.174;2023-02-15T06:29:47;31.25;;;23.75;;
18407;SDS011;9330;52.210;21.174;2023-02-15T06:32:16;32.35;;;22.85;;
18407;SDS011;9330;52.210;21.174;2023-02-15T06:34:43;33.15;;;23.02;;
18407;SDS011;9330;52.210;21.174;2023-02-15T06:37:11;31.70;;;22.17;;
18407;SDS011;9330;52.210;21.174;2023-02-15T06:39:38;30.20;;;22.17;;
18407;SDS011;9330;52.210;21.174;2023-02-15T06:42:05;30.02;;;22.10;;
18407;SDS011;9330;52.210;21.174;2023-02-15T06:44:32;33.40;;;23.70;;
18407;SDS011;9330;52.210;21.174;2023-02-15T06:46:59;34.28;;;23.38;;
18407;SDS011;9330;52.210;21.174;2023-02-15T06:49:26;30.50;;;22.63;;
18407;SDS011;9330;52.210;21.174;2023-02-15T06:51:52;36.03;;;23.85;;
18407;SDS011;9330;52.210;21.174;2023-02-15T06:54:21;32.75;;;23.42;;
18407;SDS011;9330;52.210;21.174;2023-02-15T06:56:47;32.38;;;23.42;;
18407;SDS011;9330;52.210;21.174;2023-02-15T06:59:14;34.58;;;26.17;;
18407;SDS011;9330;52.210;21.174;2023-02-15T07:01:41;36.97;;;24.92;;
18407;SDS011;9330;52.210;21.174;2023-02-15T07:04:08;32.00;;;24.35;;
18407;SDS011;9330;52.210;21.174;2023-02-15T07:06:35;35.63;;;24.05;;
18407;SDS011;9330;52.210;21.174;2023-02-15T07:09:02;34.97;;;24.73;;
18407;SDS011;9330;52.210;21.174;2023-02-15T07:11:31;37.20;;;25.15;;
18407;SDS011;9330;52.210;21.174;2023-02-15T07:14:15;35.40;;;24.25;;
18407;SDS011;9330;52.210;21.174;2023-02-15T07:16:42;37.63;;;26.00;;
18407;SDS011;9330;52.210;21.174;2023-02-15T07:19:11;38.28;;;26.70;;
18407;SDS011;9330;52.210;21.174;2023-02-15T07:21:38;37.53;;;25.08;;
18407;SDS011;9330;52.210;21.174;2023-02-15T07:24:05;34.38;;;24.23;;
18407;SDS011;9330;52.210;21.174;2023-02-15T07:26:34;31.20;;;22.38;;
18407;SDS011;9330;52.210;21.174;2023-02-15T07:29:00;33.00;;;23.25;;
18407;SDS011;9330;52.210;21.174;2023-02-15T07:31:27;32.97;;;23.27;;
18407;SDS011;9330;52.210;21.174;2023-02-15T07:33:54;33.20;;;23.40;;
18407;SDS011;9330;52.210;21.174;2023-02-15T07:36:21;33.78;;;23.23;;
18407;SDS011;9330;52.210;21.174;2023-02-15T07:38:48;33.63;;;23.60;;
18407;SDS011;9330;52.210;21.174;2023-02-15T07:41:15;32.35;;;23.60;;
18407;SDS011;9330;52.210;21.174;2023-02-15T07:43:44;32.30;;;24.00;;
18407;SDS011;9330;52.210;21.174;2023-02-15T07:46:12;34.63;;;23.90;;
18407;SDS011;9330;52.210;21.174;2023-02-15T07:48:41;36.03;;;24.85;;
18407;SDS011;9330;52.210;21.174;2023-02-15T07:51:09;37.05;;;25.77;;
18407;SDS011;9330;52.210;21.174;2023-02-15T07:53:37;34.85;;;25.80;;
18407;SDS011;9330;52.210;21.174;2023-02-15T07:56:05;34.28;;;24.00;;
18407;SDS011;9330;52.210;21.174;2023-02-15T07:58:33;35.35;;;25.25;;
18407;SDS011;9330;52.210;21.174;2023-02-15T08:01:22;42.25;;;27.80;;
18407;SDS011;9330;52.210;21.174;2023-02-15T08:03:50;35.38;;;24.35;;
18407;SDS011;9330;52.210;21.174;2023-02-15T08:06:18;40.50;;;26.83;;
18407;SDS011;9330;52.210;21.174;2023-02-15T08:08:45;40.47;;;26.00;;
18407;SDS011;9330;52.210;21.174;2023-02-15T08:11:17;36.40;;;25.15;;
18407;SDS011;9330;52.210;21.174;2023-02-15T08:14:03;41.03;;;26.25;;
18407;SDS011;9330;52.210;21.174;2023-02-15T08:16:34;39.42;;;25.77;;
18407;SDS011;9330;52.210;21.174;2023-02-15T08:19:03;37.53;;;26.23;;
18407;SDS011;9330;52.210;21.174;2023-02-15T08:21:33;38.35;;;25.10;;
18407;SDS011;9330;52.210;21.174;2023-02-15T08:24:01;40.88;;;26.60;;
18407;SDS011;9330;52.210;21.174;2023-02-15T08:26:29;41.95;;;25.23;;
18407;SDS011;9330;52.210;21.174;2023-02-15T08:28:58;33.95;;;24.25;;
18407;SDS011;9330;52.210;21.174;2023-02-15T08:31:25;38.00;;;25.48;;
18407;SDS011;9330;52.210;21.174;2023-02-15T08:33:55;35.38;;;23.70;;
18407;SDS011;9330;52.210;21.174;2023-02-15T08:36:23;38.85;;;25.67;;
18407;SDS011;9330;52.210;21.174;2023-02-15T08:38:51;35.72;;;24.80;;
18407;SDS011;9330;52.210;21.174;2023-02-15T08:41:18;37.95;;;24.73;;
18407;SDS011;9330;52.210;21.174;2023-02-15T08:43:47;34.10;;;23.25;;
18407;SDS011;9330;52.210;21.174;2023-02-15T08:46:16;39.63;;;24.73;;
18407;SDS011;9330;52.210;21.174;2023-02-15T08:48:44;37.28;;;23.50;;
18407;SDS011;9330;52.210;21.174;2023-02-15T08:51:13;31.40;;;21.80;;
18407;SDS011;9330;52.210;21.174;2023-02-15T08:53:42;34.58;;;22.80;;
18407;SDS011;9330;52.210;21.174;2023-02-15T08:56:10;36.50;;;23.33;;
18407;SDS011;9330;52.210;21.174;2023-02-15T08:58:37;37.67;;;22.92;;
18407;SDS011;9330;52.210;21.174;2023-02-15T09:01:08;34.85;;;21.27;;
18407;SDS011;9330;52.210;21.174;2023-02-15T09:03:36;33.83;;;21.88;;
18407;SDS011;9330;52.210;21.174;2023-02-15T09:06:03;28.50;;;18.42;;
18407;SDS011;9330;52.210;21.174;2023-02-15T09:08:32;29.13;;;17.90;;
18407;SDS011;9330;52.210;21.174;2023-02-15T09:11:09;29.35;;;17.90;;
18407;SDS011;9330;52.210;21.174;2023-02-15T09:13:37;31.45;;;19.58;;
18407;SDS011;9330;52.210;21.174;2023-02-15T09:16:06;27.83;;;18.55;;
18407;SDS011;9330;52.210;21.174;2023-02-15T09:18:35;24.92;;;16.80;;
18407;SDS011;9330;52.210;21.174;2023-02-15T09:21:04;24.80;;;17.40;;
18407;SDS011;9330;52.210;21.174;2023-02-15T09:23:37;24.83;;;16.17;;
18407;SDS011;9330;52.210;21.174;2023-02-15T09:26:04;26.73;;;17.85;;
18407;SDS011;9330;52.210;21.174;2023-02-15T09:28:32;27.52;;;17.85;;
18407;SDS011;9330;52.210;21.174;2023-02-15T09:31:06;27.45;;;18.02;;
18407;SDS011;9330;52.210;21.174;2023-02-15T09:33:33;23.42;;;16.42;;
18407;SDS011;9330;52.210;21.174;2023-02-15T09:36:01;24.73;;;17.98;;
18407;SDS011;9330;52.210;21.174;2023-02-15T09:38:28;28.02;;;18.48;;
18407;SDS011;9330;52.210;21.174;2023-02-15T09:40:59;32.67;;;19.33;;
18407;SDS011;9330;52.210;21.174;2023-02-15T09:43:40;27.58;;;18.13;;
18407;SDS011;9330;52.210;21.174;2023-02-15T09:46:21;26.92;;;19.08;;
18407;SDS011;9330;52.210;21.174;2023-02-15T09:49:13;29.63;;;19.17;;
18407;SDS011;9330;52.210;21.174;2023-02-15T09:54:51;28.58;;;18.58;;
18407;SDS011;9330;52.210;21.174;2023-02-15T09:57:30;30.02;;;19.70;;
18407;SDS011;9330;52.210;21.174;2023-02-15T10:00:03;29.73;;;20.05;;
18407;SDS011;9330;52.210;21.174;2023-02-15T10:02:43;26.30;;;17.42;;
18407;SDS011;9330;52.210;21.174;2023-02-15T10:05:25;24.73;;;17.05;;
18407;SDS011;9330;52.210;21.174;2023-02-15T10:11:01;24.23;;;16.55;;
18407;SDS011;9330;52.210;21.174;2023-02-15T10:13:57;28.10;;;18.13;;
18407;SDS011;9330;52.210;21.174;2023-02-15T10:16:37;25.80;;;17.27;;
18407;SDS011;9330;52.210;21.174;2023-02-15T10:19:13;33.03;;;21.38;;
18407;SDS011;9330;52.210;21.174;2023-02-15T10:21:49;30.17;;;18.67;;
18407;SDS011;9330;52.210;21.174;2023-02-15T10:24:29;34.88;;;20.35;;
18407;SDS011;9330;52.210;21.174;2023-02-15T10:27:19;29.63;;;18.63;;
18407;SDS011;9330;52.210;21.174;2023-02-15T10:29:51;36.13;;;21.95;;
18407;SDS011;9330;52.210;21.174;2023-02-15T10:32:28;33.22;;;21.48;;
18407;SDS011;9330;52.210;21.174;2023-02-15T10:35:03;31.13;;;19.80;;
18407;SDS011;9330;52.210;21.174;2023-02-15T10:40:32;32.83;;;20.48;;
18407;SDS011;9330;52.210;21.174;2023-02-15T10:43:07;30.90;;;18.90;;
18407;SDS011;9330;52.210;21.174;2023-02-15T10:45:43;31.25;;;18.25;;
18407;SDS011;9330;52.210;21.174;2023-02-15T10:48:24;27.05;;;17.08;;
18407;SDS011;9330;52.210;21.174;2023-02-15T10:51:14;23.25;;;15.43;;
18407;SDS011;9330;52.210;21.174;2023-02-15T10:53:50;26.98;;;16.83;;
18407;SDS011;9330;52.210;21.174;2023-02-15T10:56:31;31.48;;;18.52;;
18407;SDS011;9330;52.210;21.174;2023-02-15T10:59:08;28.20;;;17.88;;
18407;SDS011;9330;52.210;21.174;2023-02-15T11:01:59;29.58;;;18.17;;
18407;SDS011;9330;52.210;21.174;2023-02-15T11:04:41;35.00;;;17.83;;
18407;SDS011;9330;52.210;21.174;2023-02-15T11:07:17;28.05;;;17.63;;
18407;SDS011;9330;52.210;21.174;2023-02-15T11:09:47;32.70;;;18.90;;
18407;SDS011;9330;52.210;21.174;2023-02-15T11:12:18;29.60;;;18.35;;
18407;SDS011;9330;52.210;21.174;2023-02-15T11:14:50;31.02;;;19.63;;
18407;SDS011;9330;52.210;21.174;2023-02-15T11:17:25;31.92;;;19.80;;
18407;SDS011;9330;52.210;21.174;2023-02-15T11:20:00;37.20;;;21.60;;
18407;SDS011;9330;52.210;21.174;2023-02-15T11:22:33;29.63;;;19.35;;
18407;SDS011;9330;52.210;21.174;2023-02-15T11:25:02;27.65;;;18.83;;
18407;SDS011;9330;52.210;21.174;2023-02-15T11:27:42;36.03;;;19.60;;
18407;SDS011;9330;52.210;21.174;2023-02-15T11:30:14;31.52;;;19.25;;
18407;SDS011;9330;52.210;21.174;2023-02-15T11:32:49;28.02;;;18.50;;
18407;SDS011;9330;52.210;21.174;2023-02-15T11:35:20;25.73;;;17.13;;
18407;SDS011;9330;52.210;21.174;2023-02-15T11:37:58;26.35;;;17.13;;
18407;SDS011;9330;52.210;21.174;2023-02-15T11:40:32;24.70;;;17.30;;
18407;SDS011;9330;52.210;21.174;2023-02-15T11:43:03;27.27;;;16.98;;
18407;SDS011;9330;52.210;21.174;2023-02-15T11:45:32;24.83;;;16.83;;
18407;SDS011;9330;52.210;21.174;2023-02-15T11:48:07;24.05;;;15.88;;
18407;SDS011;9330;52.210;21.174;2023-02-15T11:50:36;24.90;;;17.23;;
18407;SDS011;9330;52.210;21.174;2023-02-15T11:53:04;22.13;;;14.98;;
18407;SDS011;9330;52.210;21.174;2023-02-15T11:55:37;25.48;;;16.17;;
18407;SDS011;9330;52.210;21.174;2023-02-15T11:58:06;28.23;;;17.92;;
18407;SDS011;9330;52.210;21.174;2023-02-15T12:00:50;27.98;;;17.17;;
18407;SDS011;9330;52.210;21.174;2023-02-15T12:03:29;33.00;;;19.02;;
18407;SDS011;9330;52.210;21.174;2023-02-15T12:06:05;27.10;;;17.13;;
18407;SDS011;9330;52.210;21.174;2023-02-15T12:08:39;27.73;;;18.45;;
18407;SDS011;9330;52.210;21.174;2023-02-15T12:11:12;25.17;;;16.90;;
18407;SDS011;9330;52.210;21.174;2023-02-15T12:13:53;23.25;;;15.10;;
18407;SDS011;9330;52.210;21.174;2023-02-15T12:16:21;25.85;;;16.40;;
18407;SDS011;9330;52.210;21.174;2023-02-15T12:18:50;29.58;;;18.40;;
18407;SDS011;9330;52.210;21.174;2023-02-15T12:21:24;24.83;;;16.73;;
18407;SDS011;9330;52.210;21.174;2023-02-15T12:23:55;28.85;;;17.80;;
18407;SDS011;9330;52.210;21.174;2023-02-15T12:26:24;25.83;;;16.52;;
18407;SDS011;9330;52.210;21.174;2023-02-15T12:28:53;25.67;;;15.93;;
18407;SDS011;9330;52.210;21.174;2023-02-15T12:31:24;25.05;;;16.75;;
18407;SDS011;9330;52.210;21.174;2023-02-15T12:33:54;26.15;;;16.90;;
18407;SDS011;9330;52.210;21.174;2023-02-15T12:36:24;26.08;;;16.02;;
18407;SDS011;9330;52.210;21.174;2023-02-15T12:39:05;26.17;;;18.05;;
18407;SDS011;9330;52.210;21.174;2023-02-15T12:41:56;31.02;;;19.33;;
18407;SDS011;9330;52.210;21.174;2023-02-15T12:44:29;28.83;;;19.60;;
18407;SDS011;9330;52.210;21.174;2023-02-15T12:46:59;28.98;;;17.65;;
18407;SDS011;9330;52.210;21.174;2023-02-15T12:49:29;28.17;;;18.20;;
18407;SDS011;9330;52.210;21.174;2023-02-15T12:51:57;28.27;;;17.88;;
18407;SDS011;9330;52.210;21.174;2023-02-15T12:54:32;28.50;;;18.02;;
18407;SDS011;9330;52.210;21.174;2023-02-15T12:57:19;25.73;;;16.88;;
18407;SDS011;9330;52.210;21.174;2023-02-15T12:59:51;30.15;;;18.10;;
18407;SDS011;9330;52.210;21.174;2023-02-15T13:02:21;29.20;;;19.88;;
18407;SDS011;9330;52.210;21.174;2023-02-15T13:04:51;30.48;;;19.40;;
18407;SDS011;9330;52.210;21.174;2023-02-15T13:07:19;34.83;;;21.40;;
18407;SDS011;9330;52.210;21.174;2023-02-15T13:09:47;32.20;;;21.17;;
18407;SDS011;9330;52.210;21.174;2023-02-15T13:12:17;31.17;;;21.42;;
18407;SDS011;9330;52.210;21.174;2023-02-15T13:14:48;33.55;;;22.45;;
18407;SDS011;9330;52.210;21.174;2023-02-15T13:17:17;34.10;;;21.08;;
18407;SDS011;9330;52.210;21.174;2023-02-15T13:19:49;29.75;;;20.15;;
18407;SDS011;9330;52.210;21.174;2023-02-15T13:22:20;34.10;;;21.17;;
18407;SDS011;9330;52.210;21.174;2023-02-15T13:24:51;29.90;;;19.77;;
18407;SDS011;9330;52.210;21.174;2023-02-15T13:27:23;32.20;;;21.08;;
18407;SDS011;9330;52.210;21.174;2023-02-15T13:29:55;34.95;;;21.30;;
18407;SDS011;9330;52.210;21.174;2023-02-15T13:32:26;33.60;;;21.73;;
18407;SDS011;9330;52.210;21.174;2023-02-15T13:34:57;36.90;;;23.38;;
18407;SDS011;9330;52.210;21.174;2023-02-15T13:37:34;38.25;;;22.80;;
18407;SDS011;9330;52.210;21.174;2023-02-15T13:40:20;40.85;;;22.73;;
18407;SDS011;9330;52.210;21.174;2023-02-15T13:42:52;35.42;;;21.77;;
18407;SDS011;9330;52.210;21.174;2023-02-15T13:45:32;33.90;;;21.83;;
18407;SDS011;9330;52.210;21.174;2023-02-15T13:48:11;33.50;;;21.33;;
18407;SDS011;9330;52.210;21.174;2023-02-15T13:50:54;32.30;;;21.48;;
18407;SDS011;9330;52.210;21.174;2023-02-15T13:53:50;34.50;;;20.85;;
18407;SDS011;9330;52.210;21.174;2023-02-15T13:56:34;32.80;;;21.00;;
18407;SDS011;9330;52.210;21.174;2023-02-15T13:59:19;33.92;;;20.75;;
18407;SDS011;9330;52.210;21.174;2023-02-15T14:02:12;31.83;;;20.50;;
18407;SDS011;9330;52.210;21.174;2023-02-15T14:07:58;32.83;;;22.20;;
18407;SDS011;9330;52.210;21.174;2023-02-15T14:10:43;35.22;;;23.15;;
18407;SDS011;9330;52.210;21.174;2023-02-15T14:16:17;40.60;;;24.40;;
18407;SDS011;9330;52.210;21.174;2023-02-15T14:18:54;39.47;;;24.73;;
18407;SDS011;9330;52.210;21.174;2023-02-15T14:21:30;39.72;;;25.20;;
18407;SDS011;9330;52.210;21.174;2023-02-15T14:24:05;41.00;;;25.95;;
18407;SDS011;9330;52.210;21.174;2023-02-15T14:26:43;43.15;;;25.70;;
18407;SDS011;9330;52.210;21.174;2023-02-15T14:29:20;34.80;;;22.92;;
18407;SDS011;9330;52.210;21.174;2023-02-15T14:31:55;38.45;;;23.98;;
18407;SDS011;9330;52.210;21.174;2023-02-15T14:34:26;41.05;;;25.55;;
18407;SDS011;9330;52.210;21.174;2023-02-15T14:36:56;40.35;;;25.35;;
18407;SDS011;9330;52.210;21.174;2023-02-15T14:39:31;39.47;;;24.67;;
18407;SDS011;9330;52.210;21.174;2023-02-15T14:42:25;40.22;;;24.52;;
18407;SDS011;9330;52.210;21.174;2023-02-15T14:45:01;40.17;;;25.10;;
18407;SDS011;9330;52.210;21.174;2023-02-15T14:47:33;43.85;;;27.00;;
18407;SDS011;9330;52.210;21.174;2023-02-15T14:53:22;47.33;;;27.20;;
18407;SDS011;9330;52.210;21.174;2023-02-15T14:56:19;49.60;;;29.63;;
18407;SDS011;9330;52.210;21.174;2023-02-15T14:58:54;50.22;;;29.50;;
18407;SDS011;9330;52.210;21.174;2023-02-15T15:01:26;53.22;;;30.73;;
18407;SDS011;9330;52.210;21.174;2023-02-15T15:03:57;52.13;;;29.48;;
18407;SDS011;9330;52.210;21.174;2023-02-15T15:06:26;52.88;;;29.23;;
18407;SDS011;9330;52.210;21.174;2023-02-15T15:08:55;51.03;;;30.42;;
18407;SDS011;9330;52.210;21.174;2023-02-15T15:11:41;48.10;;;29.33;;
18407;SDS011;9330;52.210;21.174;2023-02-15T15:14:10;49.35;;;28.17;;
18407;SDS011;9330;52.210;21.174;2023-02-15T15:16:52;49.88;;;27.83;;
18407;SDS011;9330;52.210;21.174;2023-02-15T15:22:28;43.83;;;26.15;;